createdAt,value
2022-10-30T00:01:44.964Z,21.05
2022-10-30T00:03:46.303Z,21.09
2022-10-30T00:05:47.626Z,21.08
2022-10-30T00:07:48.879Z,21.09
2022-10-30T00:09:50.189Z,21.07
2022-10-30T00:11:51.452Z,21.08
2022-10-30T00:13:52.778Z,21.06
2022-10-30T00:15:54.110Z,21.06
2022-10-30T00:17:55.713Z,21.07
2022-10-30T00:19:57.217Z,20.26
2022-10-30T00:23:58.655Z,21.04
2022-10-30T00:25:59.936Z,21.04
2022-10-30T00:28:01.245Z,21.04
2022-10-30T00:30:02.522Z,21.04
2022-10-30T00:32:03.804Z,21.06
2022-10-30T00:34:05.105Z,21.06
2022-10-30T00:36:06.464Z,21.06
2022-10-30T00:38:07.757Z,21.04
2022-10-30T00:40:09.129Z,21.03
2022-10-30T00:42:10.426Z,21.01
2022-10-30T00:44:11.720Z,21.00
2022-10-30T00:46:13.035Z,20.98
2022-10-30T00:48:14.353Z,21.00
2022-10-30T00:50:15.751Z,21.04
2022-10-30T00:52:17.077Z,21.03
2022-10-30T00:54:18.372Z,21.02
2022-10-30T00:56:19.666Z,21.03
2022-10-30T00:58:21.021Z,21.02
2022-10-30T01:00:22.342Z,21.01
2022-10-30T01:02:23.787Z,21.01
2022-10-30T01:04:29.055Z,21.00
2022-10-30T01:06:31.593Z,21.00
2022-10-30T01:08:33.162Z,21.00
2022-10-30T01:10:34.532Z,21.01
2022-10-30T01:12:35.804Z,21.01
2022-10-30T01:14:37.081Z,21.02
2022-10-30T01:16:38.569Z,21.01
2022-10-30T01:18:39.884Z,21.02
2022-10-30T01:20:41.154Z,21.03
2022-10-30T01:22:42.444Z,21.04
2022-10-30T01:24:43.768Z,21.08
2022-10-30T01:26:45.065Z,21.10
2022-10-30T01:28:46.371Z,21.11
2022-10-30T01:30:47.682Z,21.10
2022-10-30T01:32:48.956Z,21.09
2022-10-30T01:34:50.233Z,21.07
2022-10-30T01:36:51.572Z,21.07
2022-10-30T01:38:52.949Z,21.04
2022-10-30T01:40:54.210Z,21.02
2022-10-30T01:42:55.575Z,21.07
2022-10-30T01:44:56.850Z,21.07
2022-10-30T01:46:58.125Z,21.06
2022-10-30T01:48:59.409Z,21.06
2022-10-30T01:51:00.707Z,21.06
2022-10-30T01:53:01.991Z,21.06
2022-10-30T01:55:03.293Z,21.04
2022-10-30T01:57:04.658Z,21.05
2022-10-30T01:59:05.945Z,21.05
2022-10-30T02:01:07.323Z,21.07
2022-10-30T02:03:08.879Z,21.08
2022-10-30T02:05:10.155Z,21.06
2022-10-30T02:07:11.479Z,21.06
2022-10-30T02:09:12.735Z,21.04
2022-10-30T02:11:14.064Z,21.03
2022-10-30T02:13:15.366Z,21.04
2022-10-30T02:15:17.113Z,21.04
2022-10-30T02:17:18.405Z,21.03
2022-10-30T02:19:19.703Z,21.01
2022-10-30T02:21:21.015Z,21.01
2022-10-30T02:23:22.495Z,21.00
2022-10-30T02:25:23.849Z,20.99
2022-10-30T02:27:25.141Z,21.05
2022-10-30T02:29:26.432Z,21.05
2022-10-30T02:31:27.701Z,21.08
2022-10-30T02:33:29.002Z,21.09
2022-10-30T02:35:30.302Z,21.08
2022-10-30T02:37:32.765Z,21.06
2022-10-30T02:39:34.061Z,21.05
2022-10-30T02:41:35.362Z,21.06
2022-10-30T02:43:36.847Z,21.07
2022-10-30T02:45:38.117Z,21.06
2022-10-30T02:47:39.455Z,21.05
2022-10-30T02:49:40.748Z,21.09
2022-10-30T02:51:42.074Z,21.07
2022-10-30T02:53:43.375Z,21.07
2022-10-30T02:55:44.665Z,21.06
2022-10-30T02:57:45.952Z,21.04
2022-10-30T02:59:47.361Z,21.03
2022-10-30T03:01:48.736Z,21.03
2022-10-30T03:03:50.080Z,21.02
2022-10-30T03:05:51.356Z,21.03
2022-10-30T03:07:53.141Z,21.05
2022-10-30T03:09:54.976Z,21.09
2022-10-30T03:11:56.259Z,21.11
2022-10-30T03:13:57.745Z,21.11
2022-10-30T03:15:59.024Z,21.15
2022-10-30T03:18:00.617Z,21.16
2022-10-30T03:20:02.172Z,21.16
2022-10-30T03:22:03.436Z,21.17
2022-10-30T03:24:04.745Z,21.16
2022-10-30T03:26:06.243Z,21.17
2022-10-30T03:28:07.525Z,21.18
2022-10-30T03:30:08.816Z,21.16
2022-10-30T03:32:10.790Z,21.16
2022-10-30T03:34:12.169Z,21.17
2022-10-30T03:36:13.482Z,21.19
2022-10-30T03:38:14.749Z,21.20
2022-10-30T03:40:16.101Z,21.19
2022-10-30T03:42:17.398Z,21.18
2022-10-30T03:44:18.693Z,21.18
2022-10-30T03:46:19.972Z,21.16
2022-10-30T03:48:21.329Z,21.15
2022-10-30T03:50:22.616Z,21.13
2022-10-30T03:52:23.898Z,21.11
2022-10-30T03:54:25.193Z,21.10
2022-10-30T03:56:26.482Z,21.09
2022-10-30T03:58:27.810Z,21.09
2022-10-30T04:00:29.105Z,21.07
2022-10-30T04:02:30.417Z,21.09
2022-10-30T04:04:31.725Z,21.09
2022-10-30T04:06:32.979Z,21.06
2022-10-30T04:08:34.284Z,21.03
2022-10-30T04:10:35.602Z,21.02
2022-10-30T04:12:36.980Z,21.04
2022-10-30T04:14:38.263Z,21.03
2022-10-30T04:16:39.570Z,21.01
2022-10-30T04:18:40.892Z,21.05
2022-10-30T04:20:42.201Z,21.07
2022-10-30T04:22:43.469Z,21.08
2022-10-30T04:24:45.384Z,21.07
2022-10-30T04:26:46.687Z,21.08
2022-10-30T04:28:47.960Z,21.08
2022-10-30T04:30:49.454Z,21.09
2022-10-30T04:32:50.927Z,21.11
2022-10-30T04:34:53.305Z,21.13
2022-10-30T04:36:55.606Z,21.11
2022-10-30T04:38:56.884Z,21.10
2022-10-30T04:40:58.203Z,21.11
2022-10-30T04:42:59.817Z,21.13
2022-10-30T04:45:05.098Z,21.13
2022-10-30T04:47:06.551Z,21.14
2022-10-30T04:49:07.905Z,21.13
2022-10-30T04:51:09.824Z,21.14
2022-10-30T04:53:11.144Z,21.15
2022-10-30T04:55:12.472Z,21.14
2022-10-30T04:57:13.781Z,21.13
2022-10-30T04:59:15.268Z,21.12
2022-10-30T05:01:16.831Z,21.11
2022-10-30T05:03:18.189Z,21.10
2022-10-30T05:05:20.272Z,21.10
2022-10-30T05:07:21.549Z,21.09
2022-10-30T05:09:22.853Z,21.14
2022-10-30T05:11:24.129Z,20.86
2022-10-30T05:13:25.406Z,21.14
2022-10-30T05:15:26.681Z,21.14
2022-10-30T05:17:28.018Z,21.15
2022-10-30T05:19:32.005Z,21.15
2022-10-30T05:21:33.303Z,21.12
2022-10-30T05:23:34.575Z,21.12
2022-10-30T05:25:35.900Z,21.10
2022-10-30T05:27:37.337Z,21.10
2022-10-30T05:29:38.619Z,21.10
2022-10-30T05:31:39.903Z,21.08
2022-10-30T05:33:41.163Z,21.07
2022-10-30T05:35:42.432Z,21.07
2022-10-30T05:37:43.901Z,21.06
2022-10-30T05:39:45.275Z,21.06
2022-10-30T05:41:46.585Z,21.07
2022-10-30T05:43:47.921Z,21.12
2022-10-30T05:45:49.578Z,21.14
2022-10-30T05:47:50.854Z,21.16
2022-10-30T05:49:52.231Z,21.16
2022-10-30T05:51:53.500Z,21.18
2022-10-30T05:53:54.760Z,21.20
2022-10-30T05:55:56.076Z,21.19
2022-10-30T05:57:57.691Z,21.18
2022-10-30T05:59:59.151Z,21.12
2022-10-30T06:02:00.494Z,21.12
2022-10-30T06:04:01.820Z,21.06
2022-10-30T06:06:03.133Z,21.01
2022-10-30T06:08:04.502Z,21.00
2022-10-30T06:10:05.778Z,21.03
2022-10-30T06:12:07.107Z,21.07
2022-10-30T06:14:08.399Z,21.08
2022-10-30T06:16:09.676Z,21.10
2022-10-30T06:18:10.952Z,21.11
2022-10-30T06:20:12.217Z,21.10
2022-10-30T06:22:13.512Z,21.12
2022-10-30T06:24:14.856Z,21.15
2022-10-30T06:26:16.129Z,21.18
2022-10-30T06:28:17.400Z,21.18
2022-10-30T06:30:18.711Z,21.17
2022-10-30T06:32:19.982Z,21.17
2022-10-30T06:34:21.293Z,21.16
2022-10-30T06:36:22.589Z,21.15
2022-10-30T06:38:23.907Z,21.12
2022-10-30T06:40:25.180Z,21.13
2022-10-30T06:42:26.515Z,21.14
2022-10-30T06:44:27.804Z,21.14
2022-10-30T06:46:32.592Z,21.14
2022-10-30T06:48:35.297Z,21.16
2022-10-30T06:50:36.577Z,21.18
2022-10-30T06:52:37.870Z,21.20
2022-10-30T06:54:39.140Z,21.16
2022-10-30T06:56:40.457Z,21.13
2022-10-30T06:58:42.204Z,21.10
2022-10-30T07:00:43.597Z,21.17
2022-10-30T07:02:44.943Z,21.18
2022-10-30T07:04:46.208Z,21.18
2022-10-30T07:06:47.526Z,21.17
2022-10-30T07:08:48.812Z,21.14
2022-10-30T07:10:50.090Z,21.09
2022-10-30T07:12:54.342Z,21.04
2022-10-30T07:14:55.619Z,21.03
2022-10-30T07:16:56.893Z,21.01
2022-10-30T07:19:00.633Z,21.00
2022-10-30T07:21:05.003Z,20.98
2022-10-30T07:23:06.453Z,20.96
2022-10-30T07:25:07.729Z,20.96
2022-10-30T07:27:09.011Z,20.97
2022-10-30T07:29:10.309Z,20.98
2022-10-30T07:31:11.624Z,21.01
2022-10-30T07:33:12.958Z,21.06
2022-10-30T07:35:14.296Z,21.05
2022-10-30T07:37:15.571Z,21.04
2022-10-30T07:39:16.854Z,21.03
2022-10-30T07:41:18.148Z,21.02
2022-10-30T07:43:19.425Z,21.01
2022-10-30T07:45:22.241Z,20.98
2022-10-30T07:47:23.740Z,20.99
2022-10-30T07:49:25.039Z,21.08
2022-10-30T07:51:26.356Z,21.12
2022-10-30T07:53:27.710Z,21.16
2022-10-30T07:55:29.052Z,21.18
2022-10-30T07:57:30.310Z,21.14
2022-10-30T07:59:34.488Z,20.43
2022-10-30T08:01:35.928Z,20.04
2022-10-30T08:03:37.249Z,19.95
2022-10-30T08:05:38.549Z,19.79
2022-10-30T08:07:40.085Z,19.88
2022-10-30T08:09:41.431Z,19.92
2022-10-30T08:11:42.735Z,19.96
2022-10-30T08:13:44.008Z,19.88
2022-10-30T08:15:45.290Z,19.84
2022-10-30T08:17:46.657Z,19.87
2022-10-30T08:19:47.940Z,19.84
2022-10-30T08:21:49.433Z,20.02
2022-10-30T08:23:51.720Z,20.45
2022-10-30T08:25:53.018Z,20.68
2022-10-30T08:27:55.002Z,20.77
2022-10-30T08:29:56.287Z,20.94
2022-10-30T08:31:57.590Z,21.17
2022-10-30T08:33:58.925Z,21.16
2022-10-30T08:36:00.796Z,21.21
2022-10-30T08:38:02.977Z,21.12
2022-10-30T08:40:04.270Z,21.07
2022-10-30T08:42:05.550Z,20.71
2022-10-30T08:44:06.821Z,20.95
2022-10-30T08:46:08.130Z,21.32
2022-10-30T08:48:09.444Z,22.01
2022-10-30T08:50:10.779Z,21.81
2022-10-30T08:52:12.172Z,21.64
2022-10-30T08:54:13.449Z,21.77
2022-10-30T08:56:14.755Z,21.69
2022-10-30T08:58:16.024Z,21.74
2022-10-30T09:00:17.350Z,22.00
2022-10-30T09:02:18.814Z,21.91
2022-10-30T09:04:20.193Z,22.05
2022-10-30T09:06:21.485Z,22.41
2022-10-30T09:08:23.567Z,22.01
2022-10-30T09:10:24.840Z,21.71
2022-10-30T09:12:26.159Z,21.55
2022-10-30T09:14:27.430Z,21.46
2022-10-30T09:16:28.766Z,21.38
2022-10-30T09:18:30.029Z,21.89
2022-10-30T09:20:31.322Z,21.76
2022-10-30T09:22:32.630Z,21.65
2022-10-30T09:24:33.905Z,22.47
2022-10-30T09:26:35.198Z,22.77
2022-10-30T09:28:36.481Z,22.76
2022-10-30T09:30:37.753Z,23.08
2022-10-30T09:32:39.029Z,23.09
2022-10-30T09:34:41.075Z,22.39
2022-10-30T09:36:46.304Z,22.74
2022-10-30T09:38:47.763Z,23.23
2022-10-30T09:40:49.040Z,22.99
2022-10-30T09:42:50.628Z,22.84
2022-10-30T09:45:08.187Z,22.77
2022-10-30T09:47:13.176Z,22.83
2022-10-30T09:49:14.602Z,22.87
2022-10-30T09:51:15.950Z,22.89
2022-10-30T09:53:17.228Z,22.89
2022-10-30T09:55:18.543Z,22.90
2022-10-30T09:57:19.903Z,22.92
2022-10-30T09:59:21.200Z,23.36
2022-10-30T10:01:22.640Z,23.27
2022-10-30T10:03:24.017Z,23.27
2022-10-30T10:05:25.306Z,23.24
2022-10-30T10:07:26.687Z,23.20
2022-10-30T10:09:28.182Z,22.64
2022-10-30T10:11:29.535Z,23.46
2022-10-30T10:13:30.825Z,23.48
2022-10-30T10:15:32.114Z,23.48
2022-10-30T10:17:33.466Z,23.03
2022-10-30T10:19:34.749Z,22.70
2022-10-30T10:21:36.050Z,22.56
2022-10-30T10:23:37.334Z,22.49
2022-10-30T10:25:38.637Z,22.44
2022-10-30T10:27:39.914Z,22.42
2022-10-30T10:29:41.218Z,22.42
2022-10-30T10:31:42.495Z,22.40
2022-10-30T10:33:43.823Z,22.39
2022-10-30T10:35:45.109Z,22.38
2022-10-30T10:37:46.393Z,22.36
2022-10-30T10:39:47.711Z,22.38
2022-10-30T10:41:53.443Z,22.36
2022-10-30T10:43:55.153Z,22.36
2022-10-30T10:45:56.413Z,22.37
2022-10-30T10:47:58.005Z,22.34
2022-10-30T10:49:59.589Z,22.33
2022-10-30T10:52:00.869Z,22.34
2022-10-30T10:54:02.416Z,22.36
2022-10-30T10:56:03.713Z,22.37
2022-10-30T10:58:04.994Z,22.38
2022-10-30T11:00:06.342Z,22.38
2022-10-30T11:02:07.826Z,22.38
2022-10-30T11:04:09.211Z,22.39
2022-10-30T11:06:10.482Z,22.71
2022-10-30T11:08:12.420Z,23.25
2022-10-30T11:10:14.225Z,23.44
2022-10-30T11:12:15.503Z,23.78
2022-10-30T11:14:16.821Z,24.09
2022-10-30T11:16:18.137Z,23.78
2022-10-30T11:18:19.428Z,23.86
2022-10-30T11:20:20.721Z,23.73
2022-10-30T11:22:22.128Z,23.62
2022-10-30T11:24:23.410Z,23.32
2022-10-30T11:26:24.664Z,22.93
2022-10-30T11:28:25.931Z,22.74
2022-10-30T11:30:28.657Z,22.68
2022-10-30T11:32:30.061Z,22.63
2022-10-30T11:34:31.375Z,22.62
2022-10-30T11:36:33.681Z,22.58
2022-10-30T11:38:34.962Z,22.54
2022-10-30T11:40:36.229Z,22.51
2022-10-30T11:42:37.505Z,22.49
2022-10-30T11:44:38.835Z,22.45
2022-10-30T11:46:40.263Z,22.39
2022-10-30T11:48:41.577Z,22.35
2022-10-30T11:50:42.850Z,22.27
2022-10-30T11:52:44.131Z,22.20
2022-10-30T11:54:45.438Z,22.13
2022-10-30T11:56:46.711Z,22.06
2022-10-30T11:58:48.061Z,22.00
2022-10-30T12:00:49.336Z,21.93
2022-10-30T12:02:53.898Z,21.89
2022-10-30T12:04:55.272Z,21.85
2022-10-30T12:06:56.575Z,21.80
2022-10-30T12:08:57.844Z,21.77
2022-10-30T12:10:59.206Z,21.76
2022-10-30T12:13:00.953Z,21.74
2022-10-30T12:15:02.466Z,21.72
2022-10-30T12:17:03.754Z,21.71
2022-10-30T12:19:05.081Z,21.69
2022-10-30T12:21:06.367Z,21.68
2022-10-30T12:23:07.664Z,21.65
2022-10-30T12:25:08.977Z,21.62
2022-10-30T12:27:10.249Z,21.59
2022-10-30T12:29:17.608Z,21.57
2022-10-30T12:31:18.940Z,21.57
2022-10-30T12:33:20.201Z,21.57
2022-10-30T12:35:21.524Z,21.57
2022-10-30T12:37:22.785Z,21.53
2022-10-30T12:39:24.071Z,21.49
2022-10-30T12:41:25.377Z,21.46
2022-10-30T12:43:27.144Z,21.43
2022-10-30T12:45:28.646Z,21.39
2022-10-30T12:47:30.298Z,21.36
2022-10-30T12:49:31.594Z,21.33
2022-10-30T12:51:32.972Z,21.31
2022-10-30T12:53:34.257Z,21.28
2022-10-30T12:55:35.524Z,21.25
2022-10-30T12:57:36.838Z,21.22
2022-10-30T12:59:38.109Z,21.21
2022-10-30T13:01:42.546Z,21.19
2022-10-30T13:03:43.997Z,21.18
2022-10-30T13:05:45.292Z,21.19
2022-10-30T13:07:46.630Z,21.19
2022-10-30T13:09:47.914Z,21.20
2022-10-30T13:11:49.181Z,21.20
2022-10-30T13:13:50.488Z,21.22
2022-10-30T13:15:51.785Z,21.24
2022-10-30T13:17:53.077Z,21.25
2022-10-30T13:19:54.373Z,21.28
2022-10-30T13:22:01.717Z,21.28
2022-10-30T13:24:03.010Z,21.29
2022-10-30T13:26:04.341Z,21.29
2022-10-30T13:28:05.628Z,21.29
2022-10-30T13:30:06.904Z,21.26
2022-10-30T13:32:08.184Z,21.19
2022-10-30T13:34:09.474Z,21.11
2022-10-30T13:36:10.794Z,20.25
2022-10-30T13:38:12.065Z,21.02
2022-10-30T13:40:14.594Z,20.98
2022-10-30T13:42:16.093Z,20.95
2022-10-30T13:44:17.364Z,20.91
2022-10-30T13:46:18.651Z,20.90
2022-10-30T13:48:19.975Z,20.88
2022-10-30T13:50:21.248Z,21.68
2022-10-30T13:52:22.640Z,22.54
2022-10-30T13:54:23.956Z,21.92
2022-10-30T13:56:25.284Z,21.57
2022-10-30T13:58:26.551Z,21.39
2022-10-30T14:00:27.845Z,21.32
2022-10-30T14:02:29.265Z,21.26
2022-10-30T14:04:30.643Z,21.22
2022-10-30T14:06:33.616Z,21.21
2022-10-30T14:08:35.119Z,21.21
2022-10-30T14:10:36.445Z,21.22
2022-10-30T14:12:37.754Z,21.21
2022-10-30T14:14:39.134Z,21.20
2022-10-30T14:16:40.959Z,21.20
2022-10-30T14:18:42.251Z,21.18
2022-10-30T14:20:43.579Z,21.19
2022-10-30T14:22:45.152Z,21.18
2022-10-30T14:24:46.460Z,21.18
2022-10-30T14:26:51.700Z,21.16
2022-10-30T14:28:54.290Z,21.16
2022-10-30T14:30:55.577Z,21.15
2022-10-30T14:32:57.226Z,21.12
2022-10-30T14:34:58.514Z,21.13
2022-10-30T14:36:59.824Z,21.12
2022-10-30T14:39:01.122Z,21.11
2022-10-30T14:41:02.432Z,21.11
2022-10-30T14:43:03.718Z,21.10
2022-10-30T14:45:05.868Z,21.10
2022-10-30T14:47:07.160Z,21.13
2022-10-30T14:49:08.457Z,21.17
2022-10-30T14:51:11.572Z,21.16
2022-10-30T14:53:12.861Z,21.16
2022-10-30T14:55:14.185Z,21.17
2022-10-30T14:57:15.482Z,21.16
2022-10-30T14:59:16.788Z,21.16
2022-10-30T15:01:18.139Z,21.16
2022-10-30T15:03:19.584Z,21.14
2022-10-30T15:05:21.090Z,21.13
2022-10-30T15:07:22.449Z,21.13
2022-10-30T15:09:23.972Z,21.13
2022-10-30T15:11:25.276Z,21.11
2022-10-30T15:13:26.550Z,21.07
2022-10-30T15:15:27.861Z,21.05
2022-10-30T15:17:29.291Z,21.03
2022-10-30T15:19:30.571Z,21.02
2022-10-30T15:21:33.948Z,21.03
2022-10-30T15:23:35.229Z,21.03
2022-10-30T15:25:36.529Z,21.04
2022-10-30T15:27:37.874Z,21.05
2022-10-30T15:29:39.145Z,21.08
2022-10-30T15:31:40.433Z,21.17
2022-10-30T15:33:41.750Z,21.22
2022-10-30T15:35:43.026Z,21.23
2022-10-30T15:37:44.328Z,21.23
2022-10-30T15:39:45.642Z,20.49
2022-10-30T15:41:46.965Z,21.29
2022-10-30T15:43:48.224Z,21.30
2022-10-30T15:45:49.558Z,21.30
2022-10-30T15:47:53.794Z,21.29
2022-10-30T15:49:55.314Z,21.28
2022-10-30T15:51:56.622Z,21.22
2022-10-30T15:53:57.949Z,21.22
2022-10-30T15:55:59.239Z,21.25
2022-10-30T15:58:03.983Z,21.28
2022-10-30T16:00:07.935Z,21.28
2022-10-30T16:02:09.480Z,21.28
2022-10-30T16:04:10.850Z,21.27
2022-10-30T16:06:12.129Z,21.25
2022-10-30T16:08:13.936Z,21.25
2022-10-30T16:10:15.210Z,21.27
2022-10-30T16:12:16.516Z,21.27
2022-10-30T16:14:17.817Z,21.29
2022-10-30T16:16:19.099Z,21.31
2022-10-30T16:18:20.439Z,21.32
2022-10-30T16:20:21.728Z,21.33
2022-10-30T16:22:22.997Z,21.34
2022-10-30T16:24:24.282Z,21.36
2022-10-30T16:26:25.588Z,21.41
2022-10-30T16:28:26.938Z,21.43
2022-10-30T16:30:31.928Z,21.47
2022-10-30T16:32:33.322Z,21.48
2022-10-30T16:34:37.798Z,21.49
2022-10-30T16:36:39.117Z,21.52
2022-10-30T16:38:40.457Z,21.54
2022-10-30T16:40:41.775Z,21.58
2022-10-30T16:42:43.058Z,21.57
2022-10-30T16:44:44.365Z,21.61
2022-10-30T16:46:45.631Z,21.47
2022-10-30T16:48:49.625Z,21.33
2022-10-30T16:50:50.940Z,21.25
2022-10-30T16:52:52.217Z,21.78
2022-10-30T16:54:53.527Z,22.03
2022-10-30T16:56:54.869Z,21.93
2022-10-30T16:58:56.140Z,21.93
2022-10-30T17:00:57.548Z,21.94
2022-10-30T17:02:59.231Z,21.97
2022-10-30T17:05:00.693Z,22.03
2022-10-30T17:07:01.964Z,22.09
2022-10-30T17:09:03.274Z,21.89
2022-10-30T17:11:04.850Z,21.61
2022-10-30T17:13:06.152Z,21.80
2022-10-30T17:15:07.432Z,22.02
2022-10-30T17:17:08.729Z,22.13
2022-10-30T17:19:10.009Z,22.19
2022-10-30T17:21:11.289Z,22.24
2022-10-30T17:23:12.574Z,22.22
2022-10-30T17:25:13.893Z,22.27
2022-10-30T17:27:15.153Z,22.28
2022-10-30T17:29:16.424Z,22.34
2022-10-30T17:31:17.704Z,22.40
2022-10-30T17:33:18.965Z,22.43
2022-10-30T17:35:20.265Z,22.71
2022-10-30T17:37:21.562Z,22.33
2022-10-30T17:39:22.834Z,21.98
2022-10-30T17:41:24.134Z,22.35
2022-10-30T17:43:25.410Z,22.24
2022-10-30T17:45:26.713Z,22.34
2022-10-30T17:47:28.039Z,22.39
2022-10-30T17:49:29.364Z,22.50
2022-10-30T17:51:32.447Z,22.67
2022-10-30T17:53:39.848Z,22.72
2022-10-30T17:55:41.125Z,22.89
2022-10-30T17:57:42.501Z,22.56
2022-10-30T17:59:43.822Z,22.80
2022-10-30T18:01:49.193Z,22.70
2022-10-30T18:03:50.610Z,22.70
2022-10-30T18:05:51.941Z,22.80
2022-10-30T18:07:53.259Z,22.89
2022-10-30T18:09:54.571Z,23.46
2022-10-30T18:11:55.857Z,23.18
2022-10-30T18:13:57.522Z,23.07
2022-10-30T18:15:58.822Z,23.08
2022-10-30T18:18:00.285Z,23.28
2022-10-30T18:20:01.682Z,23.20
2022-10-30T18:22:03.055Z,23.17
2022-10-30T18:24:04.502Z,23.23
2022-10-30T18:26:05.847Z,23.07
2022-10-30T18:28:07.151Z,23.01
2022-10-30T18:30:08.418Z,22.97
2022-10-30T18:32:09.939Z,22.93
2022-10-30T18:34:11.290Z,22.88
2022-10-30T18:36:12.597Z,22.90
2022-10-30T18:38:16.736Z,22.90
2022-10-30T18:40:21.739Z,22.89
2022-10-30T18:42:26.779Z,22.94
2022-10-30T18:44:28.073Z,23.09
2022-10-30T18:46:29.354Z,23.41
2022-10-30T18:48:30.637Z,23.31
2022-10-30T18:50:31.944Z,23.47
2022-10-30T18:52:33.221Z,23.36
2022-10-30T18:54:34.525Z,23.32
2022-10-30T18:56:35.827Z,23.25
2022-10-30T18:58:37.137Z,22.90
2022-10-30T19:00:58.303Z,23.14
2022-10-30T19:03:02.901Z,23.37
2022-10-30T19:05:04.315Z,23.29
2022-10-30T19:07:05.588Z,22.98
2022-10-30T19:09:06.866Z,22.92
2022-10-30T19:11:08.145Z,22.92
2022-10-30T19:13:13.006Z,23.02
2022-10-30T19:15:14.515Z,22.97
2022-10-30T19:17:15.790Z,23.21
2022-10-30T19:19:17.955Z,23.02
2022-10-30T19:21:21.320Z,23.11
2022-10-30T19:23:22.606Z,22.99
2022-10-30T19:25:23.900Z,22.95
2022-10-30T19:27:25.173Z,23.03
2022-10-30T19:29:26.446Z,22.94
2022-10-30T19:31:28.026Z,22.87
2022-10-30T19:33:29.382Z,22.83
2022-10-30T19:35:30.691Z,22.80
2022-10-30T19:37:31.965Z,22.79
2022-10-30T19:39:33.259Z,22.45
2022-10-30T19:41:34.548Z,22.56
2022-10-30T19:43:35.877Z,22.71
2022-10-30T19:45:37.213Z,22.92
2022-10-30T19:47:38.512Z,22.96
2022-10-30T19:49:39.785Z,23.05
2022-10-30T19:51:41.065Z,23.07
2022-10-30T19:53:42.374Z,23.08
2022-10-30T19:55:43.690Z,23.10
2022-10-30T19:57:44.969Z,23.22
2022-10-30T19:59:46.272Z,23.24
2022-10-30T20:01:47.670Z,23.27
2022-10-30T20:03:49.026Z,23.54
2022-10-30T20:05:50.540Z,23.42
2022-10-30T20:07:52.228Z,23.36
2022-10-30T20:09:53.501Z,23.35
2022-10-30T20:11:54.809Z,23.40
2022-10-30T20:13:56.079Z,23.40
2022-10-30T20:15:58.192Z,23.36
2022-10-30T20:17:59.739Z,23.19
2022-10-30T20:20:01.261Z,21.75
2022-10-30T20:22:02.529Z,21.20
2022-10-30T20:24:03.855Z,20.48
2022-10-30T20:26:05.139Z,20.57
2022-10-30T20:28:07.134Z,21.54
2022-10-30T20:30:08.567Z,22.17
2022-10-30T20:32:12.942Z,22.49
2022-10-30T20:34:14.252Z,22.70
2022-10-30T20:36:15.581Z,22.81
2022-10-30T20:38:17.118Z,22.91
2022-10-30T20:40:18.381Z,23.04
2022-10-30T20:42:19.650Z,23.15
2022-10-30T20:44:20.949Z,23.23
2022-10-30T20:46:22.304Z,23.26
2022-10-30T20:48:23.613Z,23.29
2022-10-30T20:50:24.892Z,23.59
2022-10-30T20:52:26.187Z,23.71
2022-10-30T20:54:27.497Z,23.53
2022-10-30T20:56:28.821Z,23.33
2022-10-30T20:58:30.089Z,23.25
2022-10-30T21:00:31.498Z,23.26
2022-10-30T21:02:32.852Z,23.29
2022-10-30T21:04:34.259Z,23.29
2022-10-30T21:06:35.516Z,23.23
2022-10-30T21:08:36.999Z,23.15
2022-10-30T21:10:38.288Z,23.18
2022-10-30T21:12:39.618Z,23.22
2022-10-30T21:14:41.009Z,23.23
2022-10-30T21:16:42.338Z,23.27
2022-10-30T21:18:43.613Z,23.23
2022-10-30T21:20:45.280Z,23.26
2022-10-30T21:22:47.260Z,23.23
2022-10-30T21:24:48.592Z,23.21
2022-10-30T21:26:49.917Z,23.21
2022-10-30T21:28:51.236Z,23.31
2022-10-30T21:30:52.729Z,23.25
2022-10-30T21:32:54.089Z,23.22
2022-10-30T21:34:55.740Z,23.31
2022-10-30T21:36:57.060Z,23.37
2022-10-30T21:38:58.392Z,23.51
2022-10-30T21:40:59.661Z,23.55
2022-10-30T21:43:04.099Z,23.44
2022-10-30T21:45:06.000Z,23.54
2022-10-30T21:47:07.285Z,23.57
2022-10-30T21:49:11.612Z,23.59
2022-10-30T21:51:13.138Z,23.63
2022-10-30T21:53:14.506Z,23.67
2022-10-30T21:55:15.805Z,23.69
2022-10-30T21:57:17.078Z,23.58
2022-10-30T21:59:18.391Z,23.52
2022-10-30T22:01:19.785Z,23.45
2022-10-30T22:03:21.161Z,23.43
2022-10-30T22:05:22.463Z,23.39
2022-10-30T22:07:23.741Z,23.37
2022-10-30T22:09:25.072Z,23.32
2022-10-30T22:11:26.400Z,23.20
2022-10-30T22:13:27.673Z,22.91
2022-10-30T22:15:29.013Z,22.44
2022-10-30T22:17:33.832Z,23.29
2022-10-30T22:19:36.268Z,23.33
2022-10-30T22:21:37.538Z,23.32
2022-10-30T22:23:38.865Z,23.34
2022-10-30T22:25:40.185Z,23.46
2022-10-30T22:27:41.694Z,23.64
2022-10-30T22:29:43.018Z,23.49
2022-10-30T22:31:44.391Z,23.60
2022-10-30T22:33:45.669Z,23.53
2022-10-30T22:35:47.087Z,23.50
2022-10-30T22:37:48.415Z,23.50
2022-10-30T22:39:49.685Z,23.57
2022-10-30T22:41:50.998Z,23.57
2022-10-30T22:43:52.318Z,21.85
2022-10-30T22:45:53.743Z,20.79
2022-10-30T22:47:55.077Z,20.47
2022-10-30T22:49:56.379Z,21.15
2022-10-30T22:51:57.667Z,21.72
2022-10-30T22:53:59.033Z,21.96
2022-10-30T22:56:00.316Z,22.05
2022-10-30T22:58:02.143Z,22.09
2022-10-30T23:00:03.815Z,22.10
2022-10-30T23:02:05.193Z,22.09
2022-10-30T23:04:06.606Z,22.08
2022-10-30T23:06:07.929Z,22.06
2022-10-30T23:08:09.263Z,22.03
2022-10-30T23:10:10.523Z,22.00
2022-10-30T23:12:11.821Z,21.98
2022-10-30T23:14:13.146Z,21.97
2022-10-30T23:16:14.460Z,21.94
2022-10-30T23:18:15.766Z,21.93
2022-10-30T23:20:17.037Z,21.90
2022-10-30T23:22:18.308Z,21.87
2022-10-30T23:24:19.589Z,21.82
2022-10-30T23:26:20.942Z,21.80
2022-10-30T23:28:22.283Z,21.80
2022-10-30T23:30:23.594Z,21.78
2022-10-30T23:32:24.900Z,21.75
2022-10-30T23:34:26.190Z,21.73
2022-10-30T23:36:27.480Z,21.72
2022-10-30T23:38:28.828Z,21.72
2022-10-30T23:40:30.100Z,21.71
2022-10-30T23:42:31.401Z,21.69
2022-10-30T23:44:32.676Z,21.69
2022-10-30T23:46:34.013Z,21.67
2022-10-30T23:48:35.285Z,21.62
2022-10-30T23:50:36.564Z,21.62
2022-10-30T23:52:37.861Z,21.62
2022-10-30T23:54:39.142Z,21.66
2022-10-30T23:56:40.471Z,21.68
2022-10-30T23:58:41.750Z,21.69
